Time;durP1;ratioP1;P1;durP2;ratioP2;P2;SDS_P1;SDS_P2;PMS_P1;PMS_P2;Temp;Humidity;BMP_temperature;BMP_pressure;BME280_temperature;BME280_humidity;BME280_pressure;Samples;Min_cycle;Max_cycle;Signal;HPM_P1;HPM_P2
2021/12/17 00:04:39;;;;;;;14.30;8.73;;;;;;;5.13;100.00;-23959.97;5073637;28;20216;-73
2021/12/17 00:07:08;;;;;;;17.30;10.73;;;;;;;5.39;100.00;-23967.22;5072746;28;20716;-74
2021/12/17 00:09:33;;;;;;;14.63;9.40;;;;;;;5.40;100.00;-23967.50;5072277;28;20186;-74
2021/12/17 00:11:59;;;;;;;16.70;9.70;;;;;;;5.54;100.00;-23971.47;5073976;28;20174;-74
2021/12/17 00:14:30;;;;;;;15.80;9.43;;;;;;;5.38;100.00;-23966.94;5073383;28;20178;-74
2021/12/17 00:16:59;;;;;;;14.63;9.30;;;;;;;5.57;100.00;-23972.34;5072064;28;20548;-73
2021/12/17 00:49:23;;;;;;;14.43;9.10;;;;;;;5.31;100.00;-23965.09;5072882;28;20165;-73
2021/12/17 00:51:56;;;;;;;13.10;8.93;;;;;;;5.44;100.00;-23968.63;5072941;28;20250;-74
2021/12/17 00:54:32;;;;;;;16.10;10.27;;;;;;;5.21;100.00;-23962.09;5079856;28;20185;-74
2021/12/17 00:57:00;;;;;;;13.33;9.07;;;;;;;5.42;100.00;-23968.06;5055654;28;20178;-73
2021/12/17 00:59:26;;;;;;;14.40;9.60;;;;;;;5.47;100.00;-23969.34;5079117;28;20181;-73
2021/12/17 01:01:55;;;;;;;14.20;8.67;;;;;;;5.46;100.00;-23969.22;5073515;28;20189;-74
2021/12/17 01:04:21;;;;;;;14.33;8.90;;;;;;;5.36;100.00;-23966.22;5072823;28;20198;-73
2021/12/17 01:06:47;;;;;;;14.70;9.23;;;;;;;5.43;100.00;-23968.34;5072546;28;20536;-74
2021/12/17 01:09:16;;;;;;;14.67;9.47;;;;;;;5.00;100.00;-23956.25;5072365;28;20577;-73
2021/12/17 01:11:42;;;;;;;13.23;9.07;;;;;;;4.89;100.00;-23953.28;5072472;28;20527;-74
2021/12/17 01:14:56;;;;;;;13.77;9.20;;;;;;;5.25;100.00;-23963.38;5072214;28;20193;-74
2021/12/17 01:18:05;;;;;;;12.97;8.67;;;;;;;5.19;100.00;-23961.53;5070689;28;20566;-77
2021/12/17 01:37:02;;;;;;;11.03;7.20;;;;;;;5.20;100.00;-23961.97;5072445;28;20228;-75
2021/12/17 01:43:15;;;;;;;13.23;9.03;;;;;;;4.98;100.00;-23955.56;5071573;28;20170;-73
2021/12/17 01:46:21;;;;;;;12.07;8.57;;;;;;;4.94;100.00;-23954.56;5070558;28;20305;-75
2021/12/17 01:59:54;;;;;;;16.47;9.33;;;;;;;4.75;100.00;-23949.16;5071913;28;20228;-73
2021/12/17 02:02:19;;;;;;;13.37;8.80;;;;;;;4.37;100.00;-23938.63;5071867;28;20158;-73
2021/12/17 02:04:45;;;;;;;13.53;9.03;;;;;;;4.43;100.00;-23940.19;5071343;28;20205;-73
2021/12/17 02:07:11;;;;;;;15.43;9.50;;;;;;;4.75;100.00;-23949.16;5080865;28;20606;-73
2021/12/17 02:20:39;;;;;;;12.33;8.73;;;;;;;4.84;100.00;-23951.72;5072224;28;20216;-73
2021/12/17 02:28:46;;;;;;;13.53;8.50;;;;;;;4.11;100.00;-23931.22;5071900;28;20231;-75
2021/12/17 02:33:40;;;;;;;13.43;8.70;;;;;;;4.29;100.00;-23936.34;5071513;28;20193;-73
2021/12/17 02:36:06;;;;;;;15.70;9.50;;;;;;;4.43;100.00;-23940.19;5070951;28;20559;-73
2021/12/17 02:38:40;;;;;;;16.60;9.57;;;;;;;4.26;100.00;-23935.34;5071515;28;20170;-73
2021/12/17 02:46:36;;;;;;;12.67;8.40;;;;;;;4.06;100.00;-23929.78;5072027;28;20220;-72
2021/12/17 02:49:02;;;;;;;15.13;9.07;;;;;;;4.16;100.00;-23932.63;5075421;28;20631;-72
2021/12/17 02:51:28;;;;;;;12.77;8.80;;;;;;;4.06;100.00;-23929.78;5075211;28;20176;-73
2021/12/17 02:53:54;;;;;;;16.47;8.73;;;;;;;4.29;100.00;-23936.34;5075067;28;20268;-72
2021/12/17 02:56:21;;;;;;;13.07;8.03;;;;;;;3.90;100.00;-23925.38;5075417;28;20213;-73
2021/12/17 02:58:47;;;;;;;12.07;7.80;;;;;;;4.36;100.00;-23938.19;5075042;28;20552;-73
2021/12/17 03:01:14;;;;;;;13.47;8.00;;;;;;;4.27;100.00;-23935.63;5074548;28;20535;-74
2021/12/17 03:03:41;;;;;;;11.83;8.10;;;;;;;3.82;100.00;-23922.97;5074802;28;20208;-74
2021/12/17 03:06:06;;;;;;;13.40;8.20;;;;;;;4.27;100.00;-23935.63;5075408;28;20213;-72
2021/12/17 03:08:32;;;;;;;13.47;8.20;;;;;;;4.18;100.00;-23933.22;5074784;28;20178;-73
2021/12/17 03:10:59;;;;;;;13.33;8.90;;;;;;;4.38;100.00;-23938.75;5074955;28;20644;-75
2021/12/17 03:13:27;;;;;;;15.60;9.53;;;;;;;3.84;100.00;-23923.53;5074791;28;20178;-73
2021/12/17 03:19:09;;;;;;;16.60;9.70;;;;;;;4.38;100.00;-23938.91;5073266;28;20264;-73
2021/12/17 03:24:22;;;;;;;16.47;10.43;;;;;;;4.42;100.00;-23940.03;5074237;28;20221;-74
2021/12/17 03:26:49;;;;;;;18.70;10.27;;;;;;;4.40;100.00;-23939.47;5074730;28;20174;-73
2021/12/17 03:29:16;;;;;;;24.37;10.17;;;;;;;4.34;100.00;-23937.78;5074528;28;20166;-75
2021/12/17 03:31:47;;;;;;;15.37;9.00;;;;;;;4.33;100.00;-23937.34;5073407;28;20218;-73
2021/12/17 03:34:19;;;;;;;13.50;8.97;;;;;;;4.69;100.00;-23947.59;5074308;28;20707;-74
2021/12/17 03:36:54;;;;;;;12.67;8.40;;;;;;;4.65;100.00;-23946.31;5074120;28;20205;-74
2021/12/17 03:39:30;;;;;;;14.37;8.90;;;;;;;4.34;100.00;-23937.63;5074501;28;20188;-74
2021/12/17 03:41:58;;;;;;;13.37;8.63;;;;;;;4.59;100.00;-23944.59;5074201;28;20636;-74
2021/12/17 03:44:25;;;;;;;14.57;8.40;;;;;;;4.76;100.00;-23949.44;5074239;28;20234;-75
2021/12/17 03:46:52;;;;;;;11.83;8.10;;;;;;;4.67;100.00;-23946.88;5073844;28;20603;-74
2021/12/17 03:49:21;;;;;;;11.47;7.50;;;;;;;4.89;100.00;-23953.28;5073804;28;20178;-74
2021/12/17 03:52:04;;;;;;;11.17;7.67;;;;;;;4.76;100.00;-23949.44;5074126;28;20177;-74
2021/12/17 03:54:33;;;;;;;13.77;8.60;;;;;;;4.93;100.00;-23954.28;5074029;28;20189;-74
2021/12/17 03:56:59;;;;;;;14.10;8.60;;;;;;;4.65;100.00;-23946.44;5073016;28;20186;-74
2021/12/17 03:59:25;;;;;;;17.60;9.47;;;;;;;4.97;100.00;-23955.41;5082879;28;20174;-74
2021/12/17 04:01:51;;;;;;;14.60;10.17;;;;;;;5.06;100.00;-23957.97;5074291;28;20186;-73
2021/12/17 04:04:16;;;;;;;15.00;9.87;;;;;;;4.70;100.00;-23947.72;5073793;28;20641;-73
2021/12/17 04:06:42;;;;;;;13.80;9.83;;;;;;;5.02;100.00;-23956.84;5072606;28;20193;-73
2021/12/17 04:09:08;;;;;;;14.70;9.43;;;;;;;4.81;100.00;-23950.84;5082855;28;20178;-73
2021/12/17 04:11:34;;;;;;;16.87;9.47;;;;;;;5.15;100.00;-23960.53;5073547;28;20178;-73
2021/12/17 04:14:00;;;;;;;13.17;8.53;;;;;;;4.97;100.00;-23955.28;5078951;28;20242;-73
2021/12/17 04:16:29;;;;;;;13.63;8.20;;;;;;;4.69;100.00;-23947.44;5075370;28;20182;-74
2021/12/17 04:18:56;;;;;;;13.47;8.50;;;;;;;4.85;100.00;-23952.16;5073432;28;20178;-74
2021/12/17 04:21:22;;;;;;;12.07;7.57;;;;;;;4.86;100.00;-23952.28;5073535;28;20201;-73
2021/12/17 04:23:50;;;;;;;11.73;7.60;;;;;;;5.22;100.00;-23962.38;5073071;28;20682;-74
2021/12/17 04:26:16;;;;;;;11.23;7.20;;;;;;;4.92;100.00;-23953.84;5073585;28;20170;-74
2021/12/17 04:28:46;;;;;;;12.03;7.97;;;;;;;5.25;100.00;-23963.25;5073541;28;20178;-75
2021/12/17 04:31:12;;;;;;;11.83;7.53;;;;;;;5.30;100.00;-23964.81;5071777;28;20545;-72
2021/12/17 04:33:39;;;;;;;12.33;8.33;;;;;;;5.38;100.00;-23966.78;5073321;28;20170;-73
2021/12/17 04:36:05;;;;;;;11.53;7.77;;;;;;;5.12;100.00;-23959.53;5073213;28;20587;-72
2021/12/17 04:38:31;;;;;;;10.53;7.20;;;;;;;5.30;100.00;-23964.66;5073083;28;20174;-73
2021/12/17 04:41:08;;;;;;;11.43;7.63;;;;;;;5.26;100.00;-23963.66;5073383;28;20239;-73
2021/12/17 04:43:42;;;;;;;13.63;7.43;;;;;;;5.32;100.00;-23965.38;5072994;28;20225;-73
2021/12/17 04:46:23;;;;;;;10.97;7.17;;;;;;;5.30;100.00;-23964.66;5071697;28;20264;-74
2021/12/17 04:59:41;;;;;;;9.80;7.00;;;;;;;5.40;100.00;-23967.50;5072607;28;20188;-73
2021/12/17 05:02:06;;;;;;;10.60;7.43;;;;;;;5.25;100.00;-23963.25;5072238;28;20171;-74
2021/12/17 05:04:32;;;;;;;12.30;8.37;;;;;;;5.18;100.00;-23961.38;5071640;28;20202;-75
2021/12/17 05:06:57;;;;;;;11.00;7.40;;;;;;;5.04;100.00;-23957.41;5081334;28;20216;-73
2021/12/17 05:09:32;;;;;;;11.43;7.30;;;;;;;5.46;100.00;-23969.22;5071707;28;20182;-73
2021/12/17 05:20:42;;;;;;;11.40;7.73;;;;;;;5.35;100.00;-23966.09;5080174;28;20607;-74
2021/12/17 05:23:07;;;;;;;11.77;7.10;;;;;;;5.21;100.00;-23962.25;5071802;28;20201;-73
2021/12/17 05:25:33;;;;;;;10.60;7.47;;;;;;;5.58;100.00;-23972.63;5071522;28;20653;-74
2021/12/17 05:28:01;;;;;;;11.23;7.37;;;;;;;5.31;100.00;-23965.09;5072090;28;20190;-74
2021/12/17 05:30:32;;;;;;;10.67;7.20;;;;;;;5.58;100.00;-23972.47;5071929;28;20201;-72
2021/12/17 05:32:58;;;;;;;10.87;7.30;;;;;;;5.45;100.00;-23968.94;5071643;28;20251;-72
2021/12/17 05:35:26;;;;;;;10.00;6.70;;;;;;;5.29;100.00;-23964.38;5071843;28;20237;-75
2021/12/17 05:37:51;;;;;;;11.53;6.97;;;;;;;5.59;100.00;-23972.75;5071968;28;20177;-69
2021/12/17 05:40:17;;;;;;;11.97;7.30;;;;;;;5.28;100.00;-23964.22;5072361;28;20177;-70
2021/12/17 05:42:43;;;;;;;11.80;6.60;;;;;;;5.53;100.00;-23971.19;5091236;28;20165;-70
2021/12/17 05:45:22;;;;;;;9.20;6.77;;;;;;;5.33;100.00;-23965.66;5091803;28;20197;-69
2021/12/17 05:47:49;;;;;;;8.47;6.00;;;;;;;5.49;100.00;-23969.91;5091250;28;20325;-70
2021/12/17 05:50:15;;;;;;;9.23;6.37;;;;;;;5.34;100.00;-23965.78;5091270;28;20181;-70
2021/12/17 05:52:41;;;;;;;10.73;7.00;;;;;;;5.55;100.00;-23971.75;5090020;28;20180;-69
2021/12/17 05:55:07;;;;;;;9.27;6.60;;;;;;;5.58;100.00;-23972.63;5091406;28;20170;-73
2021/12/17 05:57:32;;;;;;;10.20;6.80;;;;;;;5.44;100.00;-23968.63;5091541;28;20196;-72
2021/12/17 05:59:58;;;;;;;10.80;6.50;;;;;;;5.19;100.00;-23961.53;5079818;28;20640;-74
2021/12/17 06:02:23;;;;;;;10.20;7.00;;;;;;;5.29;100.00;-23964.50;5071598;28;20186;-74
2021/12/17 06:04:48;;;;;;;12.27;7.20;;;;;;;5.43;100.00;-23968.22;5071093;28;20189;-75
2021/12/17 06:07:24;;;;;;;9.77;6.37;;;;;;;5.49;100.00;-23969.91;5069606;28;20186;-73
2021/12/17 06:09:51;;;;;;;10.57;7.00;;;;;;;5.09;100.00;-23958.81;5071250;28;20249;-73
2021/12/17 06:12:17;;;;;;;9.20;6.67;;;;;;;5.44;100.00;-23968.50;5070975;28;20265;-73
2021/12/17 06:14:42;;;;;;;12.93;7.57;;;;;;;5.51;100.00;-23970.47;5071351;28;20288;-74
2021/12/17 06:17:08;;;;;;;10.77;7.27;;;;;;;5.02;100.00;-23956.69;5071009;28;20219;-74
2021/12/17 06:19:33;;;;;;;13.87;7.47;;;;;;;5.05;100.00;-23957.53;5070886;28;20644;-74
2021/12/17 06:21:59;;;;;;;12.17;7.33;;;;;;;5.14;100.00;-23960.09;5074009;28;20177;-73
2021/12/17 06:24:25;;;;;;;12.20;7.10;;;;;;;5.58;100.00;-23972.47;5080342;28;20194;-71
2021/12/17 06:26:51;;;;;;;10.67;7.17;;;;;;;5.57;100.00;-23972.19;5082997;28;20691;-71
2021/12/17 06:29:16;;;;;;;12.23;7.03;;;;;;;5.78;100.00;-23978.16;5080923;28;20166;-71
2021/12/17 06:31:42;;;;;;;9.67;6.93;;;;;;;5.32;100.00;-23965.22;5073351;28;20231;-72
2021/12/17 06:34:08;;;;;;;10.87;7.53;;;;;;;5.80;100.00;-23978.72;5073001;28;20196;-72
2021/12/17 06:36:33;;;;;;;11.30;7.50;;;;;;;5.81;100.00;-23979.00;5080579;28;20263;-72
2021/12/17 06:38:58;;;;;;;11.90;7.47;;;;;;;5.78;100.00;-23978.16;5074141;28;20193;-70
2021/12/17 06:41:24;;;;;;;11.37;7.40;;;;;;;5.82;100.00;-23979.16;5071827;28;20511;-73
2021/12/17 06:43:50;;;;;;;13.43;7.20;;;;;;;5.67;100.00;-23975.03;5083210;28;20236;-71
2021/12/17 06:48:41;;;;;;;12.37;7.17;;;;;;;5.78;100.00;-23978.16;5077177;28;20620;-72
2021/12/17 06:59:38;;;;;;;11.63;7.50;;;;;;;5.55;100.00;-23971.75;5080211;28;20228;-73
2021/12/17 07:09:01;;;;;;;13.77;8.10;;;;;;;5.55;100.00;-23971.63;5051280;28;20183;-72
2021/12/17 07:10:48;;;;;;;13.10;8.70;;;;;;;5.71;100.00;-23976.16;5060106;28;20257;-74
2021/12/17 07:21:34;;;;;;;14.60;8.87;;;;;;;5.86;100.00;-23980.44;5078092;28;20235;-73
2021/12/17 07:39:43;;;;;;;11.10;6.50;;;;;;;6.55;100.00;-23999.75;5082830;28;20186;-69
2021/12/17 07:42:09;;;;;;;10.97;6.70;;;;;;;6.39;100.00;-23995.22;5075718;28;20195;-70
2021/12/17 07:44:35;;;;;;;10.77;6.37;;;;;;;6.49;100.00;-23998.06;5076382;28;20230;-70
2021/12/17 07:47:01;;;;;;;10.67;6.37;;;;;;;6.74;100.00;-24005.00;5083643;28;20193;-73
2021/12/17 07:49:27;;;;;;;12.93;6.47;;;;;;;6.81;100.00;-24007.13;5077000;28;20190;-73
2021/12/17 07:51:52;;;;;;;8.57;6.27;;;;;;;7.03;100.00;-24013.38;5081991;28;20177;-72
2021/12/17 07:54:18;;;;;;;8.10;5.90;;;;;;;6.77;100.00;-24006.00;5073574;28;20209;-71
2021/12/17 07:56:44;;;;;;;9.43;6.03;;;;;;;7.17;100.00;-24017.06;5071657;28;20185;-72
2021/12/17 07:59:11;;;;;;;9.03;6.63;;;;;;;7.21;100.00;-24018.34;5070627;28;20667;-73
2021/12/17 08:01:38;;;;;;;8.87;6.23;;;;;;;7.45;100.00;-24025.00;5068079;28;20190;-70
2021/12/17 08:04:04;;;;;;;9.27;6.00;;;;;;;7.32;100.00;-24021.31;5078237;28;20601;-70
2021/12/17 08:06:31;;;;;;;9.63;5.33;;;;;;;7.08;100.00;-24014.66;5071916;28;20197;-71
2021/12/17 08:08:56;;;;;;;10.33;5.67;;;;;;;7.20;100.00;-24017.91;5078273;28;20220;-71
2021/12/17 08:11:22;;;;;;;7.83;5.40;;;;;;;7.09;100.00;-24014.94;5070903;28;20657;-71
2021/12/17 08:13:49;;;;;;;9.90;5.77;;;;;;;7.22;100.00;-24018.47;5082735;28;20196;-72
2021/12/17 08:16:35;;;;;;;8.73;5.53;;;;;;;7.77;100.00;-24034.06;5072108;28;20641;-72
2021/12/17 08:24:46;;;;;;;7.90;5.80;;;;;;;7.82;100.00;-24035.47;5071208;28;20712;-72
2021/12/17 08:27:50;;;;;;;8.87;5.43;;;;;;;7.87;100.00;-24036.91;5080078;28;20170;-70
2021/12/17 08:30:25;;;;;;;8.87;6.10;;;;;;;7.54;100.00;-24027.69;5078814;28;20280;-71
2021/12/17 08:32:51;;;;;;;9.90;6.90;;;;;;;7.49;100.00;-24026.28;5081631;28;20185;-70
2021/12/17 08:35:17;;;;;;;10.37;6.70;;;;;;;7.60;100.00;-24029.09;5086067;28;20178;-70
2021/12/17 08:37:43;;;;;;;9.47;6.60;;;;;;;7.89;100.00;-24037.47;5073919;28;20220;-70
2021/12/17 08:40:09;;;;;;;7.97;5.10;;;;;;;7.94;100.00;-24038.88;5081623;28;20217;-71
2021/12/17 08:42:35;;;;;;;7.83;5.57;;;;;;;7.93;100.00;-24038.59;5072772;28;20178;-70
2021/12/17 08:45:07;;;;;;;7.37;5.50;;;;;;;8.19;100.00;-24045.81;5073698;28;20198;-73
2021/12/17 08:47:33;;;;;;;7.70;5.20;;;;;;;8.13;100.00;-24044.13;5056352;28;20260;-70
2021/12/17 08:50:05;;;;;;;6.60;5.23;;;;;;;8.16;100.00;-24044.97;5063493;28;20200;-74
2021/12/17 08:52:30;;;;;;;6.90;5.13;;;;;;;8.38;100.00;-24051.06;5085734;28;20230;-71
2021/12/17 08:54:56;;;;;;;7.50;5.40;;;;;;;8.05;100.00;-24041.72;5087105;28;20657;-75
2021/12/17 08:57:22;;;;;;;7.50;4.70;;;;;;;8.08;100.00;-24042.56;5080249;28;20178;-72
2021/12/17 08:59:47;;;;;;;6.23;4.70;;;;;;;8.34;100.00;-24050.06;5080672;28;20552;-73
2021/12/17 09:02:13;;;;;;;7.73;4.70;;;;;;;8.13;100.00;-24044.00;5080764;28;20209;-71
2021/12/17 09:04:38;;;;;;;6.70;4.40;;;;;;;8.42;100.00;-24052.19;5081845;28;20589;-70
2021/12/17 09:07:04;;;;;;;6.93;4.77;;;;;;;8.20;100.00;-24045.97;5073053;28;20202;-70
2021/12/17 09:09:29;;;;;;;5.60;4.47;;;;;;;8.15;100.00;-24044.69;5075483;28;20280;-69
2021/12/17 09:11:55;;;;;;;6.80;4.80;;;;;;;8.14;100.00;-24044.41;5083832;28;20242;-74
2021/12/17 09:14:26;;;;;;;5.93;4.50;;;;;;;8.32;100.00;-24049.50;5077824;28;20195;-73
2021/12/17 09:16:51;;;;;;;8.83;5.87;;;;;;;8.51;100.00;-24054.75;5068261;28;20184;-71
2021/12/17 09:19:18;;;;;;;7.77;5.47;;;;;;;8.79;100.00;-24062.66;5080257;28;20245;-74
2021/12/17 09:21:43;;;;;;;9.10;5.20;;;;;;;8.72;100.00;-24060.69;5078916;28;20166;-73
2021/12/17 09:24:10;;;;;;;9.70;4.87;;;;;;;8.54;100.00;-24055.47;5073286;28;20294;-71
2021/12/17 09:26:39;;;;;;;8.93;5.37;;;;;;;8.78;100.00;-24062.38;5089302;28;20185;-71
2021/12/17 09:29:04;;;;;;;10.77;5.50;;;;;;;8.77;100.00;-24062.09;5083509;28;20196;-72
2021/12/17 09:31:30;;;;;;;8.90;5.20;;;;;;;8.83;100.00;-24063.81;5083907;28;20186;-70
2021/12/17 09:33:56;;;;;;;8.40;5.10;;;;;;;8.86;100.00;-24064.66;5078870;28;20186;-71
2021/12/17 09:36:22;;;;;;;7.63;4.90;;;;;;;8.82;100.00;-24063.53;5074040;28;20208;-72
2021/12/17 09:38:52;;;;;;;11.63;5.20;;;;;;;8.85;100.00;-24064.38;5075079;28;20564;-70
2021/12/17 09:41:20;;;;;;;9.33;4.90;;;;;;;8.38;100.00;-24051.06;5079292;28;20181;-72
2021/12/17 09:43:46;;;;;;;9.50;5.43;;;;;;;8.43;100.00;-24052.47;5075410;28;20217;-70
2021/12/17 09:46:11;;;;;;;12.57;5.50;;;;;;;8.73;100.00;-24060.84;5078398;28;20227;-72
2021/12/17 09:48:37;;;;;;;6.60;4.70;;;;;;;8.68;100.00;-24059.41;5080507;28;20238;-71
2021/12/17 09:51:06;;;;;;;6.37;4.50;;;;;;;8.56;100.00;-24056.16;5070514;28;20668;-70
2021/12/17 09:53:32;;;;;;;6.87;4.73;;;;;;;8.68;100.00;-24059.41;5080193;28;20170;-71
2021/12/17 09:55:58;;;;;;;8.77;4.50;;;;;;;8.60;100.00;-24057.16;5069959;28;20185;-70
2021/12/17 09:58:24;;;;;;;9.63;5.10;;;;;;;8.55;100.00;-24055.75;5070033;28;20186;-71
2021/12/17 10:00:50;;;;;;;7.37;5.00;;;;;;;8.25;100.00;-24047.38;5079645;28;20169;-71
2021/12/17 10:03:15;;;;;;;7.57;4.90;;;;;;;8.40;100.00;-24051.63;5071640;28;20546;-71
2021/12/17 10:05:41;;;;;;;7.47;4.90;;;;;;;8.38;100.00;-24051.06;5072302;28;20238;-71
2021/12/17 10:08:11;;;;;;;5.63;4.70;;;;;;;8.48;100.00;-24053.75;5069552;28;20194;-70
2021/12/17 10:10:45;;;;;;;7.17;5.47;;;;;;;8.15;100.00;-24044.69;5069388;28;20316;-70
2021/12/17 10:13:15;;;;;;;6.47;4.80;;;;;;;8.53;100.00;-24055.31;5073358;28;20188;-69
2021/12/17 10:15:44;;;;;;;6.60;4.60;;;;;;;8.13;100.00;-24044.00;5075695;28;20730;-70
2021/12/17 10:18:09;;;;;;;6.23;4.57;;;;;;;8.40;100.00;-24051.63;5073384;28;20263;-72
2021/12/17 10:20:52;;;;;;;9.07;4.60;;;;;;;8.36;100.00;-24050.50;5079350;28;20264;-70
2021/12/17 10:23:21;;;;;;;7.50;4.90;;;;;;;8.59;100.00;-24057.00;5074679;28;20186;-71
2021/12/17 10:25:46;;;;;;;6.13;4.87;;;;;;;8.70;100.00;-24060.13;5071184;28;20178;-71
2021/12/17 10:28:14;;;;;;;8.07;5.07;;;;;;;8.49;100.00;-24054.03;5067161;28;20186;-72
2021/12/17 10:30:42;;;;;;;5.43;4.53;;;;;;;8.68;100.00;-24059.56;5064911;28;20561;-70
2021/12/17 10:33:11;;;;;;;8.23;4.97;;;;;;;8.81;100.00;-24063.25;5079499;28;20184;-71
2021/12/17 10:35:38;;;;;;;6.13;4.77;;;;;;;8.69;100.00;-24059.84;5074973;28;20178;-71
2021/12/17 10:38:11;;;;;;;8.50;4.83;;;;;;;8.47;100.00;-24053.63;5077617;28;20679;-70
2021/12/17 10:41:08;;;;;;;6.10;4.93;;;;;;;8.98;100.00;-24067.75;5052340;28;20155;-71
2021/12/17 10:43:39;;;;;;;8.57;5.57;;;;;;;8.60;100.00;-24057.28;5068054;28;20309;-71
2021/12/17 10:46:21;;;;;;;7.77;5.97;;;;;;;8.69;100.00;-24059.69;5079464;28;20174;-70
2021/12/17 10:48:50;;;;;;;8.60;6.10;;;;;;;8.68;100.00;-24059.56;5070408;28;20178;-69
2021/12/17 10:54:05;;;;;;;8.83;5.93;;;;;;;8.67;100.00;-24059.28;5071467;28;20271;-71
2021/12/17 10:56:36;;;;;;;8.07;5.43;;;;;;;8.68;100.00;-24059.56;5075055;28;20185;-70
2021/12/17 10:59:06;;;;;;;9.03;5.30;;;;;;;9.08;100.00;-24070.59;5070311;28;20174;-71
2021/12/17 11:01:54;;;;;;;8.45;5.35;;;;;;;9.14;100.00;-24072.44;5071067;28;20174;-70
2021/12/17 11:04:28;;;;;;;6.00;4.83;;;;;;;8.84;100.00;-24064.09;5068651;28;20217;-70
2021/12/17 11:07:06;;;;;;;10.43;5.73;;;;;;;8.93;100.00;-24066.34;5071125;28;20198;-71
2021/12/17 11:09:41;;;;;;;8.20;5.57;;;;;;;9.35;100.00;-24078.22;5085377;28;20185;-70
2021/12/17 11:12:12;;;;;;;8.67;5.70;;;;;;;9.30;100.00;-24076.81;5076148;28;20279;-71
2021/12/17 11:14:37;;;;;;;8.80;5.63;;;;;;;9.14;100.00;-24072.28;5075043;28;21510;-71
2021/12/17 11:17:04;;;;;;;8.00;5.83;;;;;;;8.86;100.00;-24064.50;5075299;28;20190;-71
2021/12/17 11:19:30;;;;;;;9.65;5.82;;;;;;;9.10;100.00;-24071.31;5079299;28;20178;-71
2021/12/17 11:21:58;;;;;;;11.18;5.28;;;;;;;9.12;100.00;-24071.88;5086432;28;20247;-71
2021/12/17 11:24:25;;;;;;;8.27;4.70;;;;;;;9.30;100.00;-24076.94;5082912;28;20316;-71
2021/12/17 11:26:50;;;;;;;6.60;4.70;;;;;;;9.05;100.00;-24069.88;5073061;28;20269;-71
2021/12/17 11:29:17;;;;;;;10.37;5.53;;;;;;;8.82;100.00;-24063.53;5072960;28;20629;-71
2021/12/17 11:31:43;;;;;;;7.53;4.80;;;;;;;9.11;100.00;-24071.59;5074074;28;20185;-70
2021/12/17 11:34:09;;;;;;;8.17;5.57;;;;;;;9.22;100.00;-24074.69;5073662;28;20671;-72
2021/12/17 11:36:34;;;;;;;7.90;5.43;;;;;;;9.24;100.00;-24075.25;5072303;28;20190;-71
2021/12/17 11:39:08;;;;;;;11.07;5.50;;;;;;;9.22;100.00;-24074.56;5070741;28;20186;-71
2021/12/17 11:41:52;;;;;;;7.68;5.35;;;;;;;9.26;100.00;-24075.81;5068717;28;20193;-72
2021/12/17 11:44:20;;;;;;;7.93;5.73;;;;;;;8.97;100.00;-24067.47;5066312;28;20217;-74
2021/12/17 11:47:02;;;;;;;7.07;5.40;;;;;;;9.12;100.00;-24071.72;5072321;28;20182;-71
2021/12/17 11:49:33;;;;;;;9.75;5.15;;;;;;;9.42;100.00;-24080.22;5077546;28;20678;-72
2021/12/17 11:52:37;;;;;;;7.20;4.70;;;;;;;9.37;100.00;-24078.66;5071816;28;20259;-71
2021/12/17 11:55:20;;;;;;;7.87;5.07;;;;;;;9.47;100.00;-24081.47;5073278;28;20193;-73
2021/12/17 11:57:52;;;;;;;7.40;4.90;;;;;;;9.49;100.00;-24082.19;5071981;28;20220;-71
2021/12/17 12:00:24;;;;;;;7.30;4.47;;;;;;;9.04;100.00;-24069.47;5085673;28;20178;-73
2021/12/17 12:02:53;;;;;;;6.63;4.18;;;;;;;9.50;100.00;-24082.47;5082352;28;20268;-72
2021/12/17 12:05:37;;;;;;;6.90;4.43;;;;;;;9.44;100.00;-24080.78;5066173;28;20205;-71
2021/12/17 12:08:24;;;;;;;9.05;5.60;;;;;;;9.19;100.00;-24073.84;5077929;28;20181;-72
2021/12/17 12:11:04;;;;;;;8.07;4.87;;;;;;;9.43;100.00;-24080.50;5066078;28;20239;-72
2021/12/17 12:13:37;;;;;;;6.72;4.85;;;;;;;9.45;100.00;-24080.91;5070965;28;20181;-70
2021/12/17 12:16:08;;;;;;;5.78;4.28;;;;;;;9.00;100.00;-24068.34;5080322;28;20184;-70
2021/12/17 12:18:42;;;;;;;8.15;5.10;;;;;;;9.29;100.00;-24076.53;5070773;28;20253;-71
2021/12/17 12:21:09;;;;;;;10.30;5.40;;;;;;;9.19;100.00;-24073.72;5067337;28;20188;-72
2021/12/17 12:23:37;;;;;;;7.13;4.97;;;;;;;9.26;100.00;-24075.69;5076755;28;20196;-72
2021/12/17 12:26:08;;;;;;;7.77;4.80;;;;;;;9.37;100.00;-24078.78;5069812;28;20182;-73
2021/12/17 12:28:45;;;;;;;6.20;4.80;;;;;;;9.09;100.00;-24071.03;5072179;28;20253;-73
2021/12/17 12:31:17;;;;;;;6.10;4.97;;;;;;;9.26;100.00;-24075.69;5059471;28;20177;-72
2021/12/17 12:34:07;;;;;;;6.55;4.90;;;;;;;9.51;100.00;-24082.75;5078650;28;20190;-74
2021/12/17 12:36:55;;;;;;;6.18;4.60;;;;;;;9.54;100.00;-24083.59;5063608;28;20696;-74
2021/12/17 12:39:25;;;;;;;17.08;5.45;;;;;;;9.39;100.00;-24079.34;5067727;28;20186;-72
2021/12/17 12:42:04;;;;;;;11.27;5.27;;;;;;;9.29;100.00;-24076.66;5068227;28;20231;-73
2021/12/17 12:44:39;;;;;;;8.40;4.78;;;;;;;9.24;100.00;-24075.25;5078005;28;20240;-73
2021/12/17 12:47:06;;;;;;;10.30;4.80;;;;;;;9.27;100.00;-24075.97;5077898;28;20284;-73
2021/12/17 12:49:41;;;;;;;10.87;4.43;;;;;;;9.26;100.00;-24075.69;5064849;28;20240;-71
2021/12/17 12:52:29;;;;;;;9.27;4.80;;;;;;;9.07;100.00;-24070.44;5070884;28;20173;-70
2021/12/17 12:55:02;;;;;;;6.80;4.83;;;;;;;9.12;100.00;-24071.72;5067591;28;20565;-71
2021/12/17 12:57:37;;;;;;;5.53;4.27;;;;;;;8.99;100.00;-24068.19;5094265;28;20243;-71
2021/12/17 13:00:10;;;;;;;10.23;5.17;;;;;;;8.69;100.00;-24059.69;5076560;28;20192;-72
2021/12/17 13:02:37;;;;;;;6.50;5.00;;;;;;;9.00;100.00;-24068.47;5054709;28;20263;-71
2021/12/17 13:05:04;;;;;;;7.27;5.37;;;;;;;8.81;100.00;-24063.25;5072173;28;20285;-71
2021/12/17 13:07:31;;;;;;;9.17;5.53;;;;;;;9.03;100.00;-24069.19;5072836;28;20236;-71
2021/12/17 13:09:57;;;;;;;6.83;5.63;;;;;;;8.94;100.00;-24066.63;5072593;28;20174;-74
2021/12/17 13:12:25;;;;;;;6.20;5.30;;;;;;;8.88;100.00;-24064.94;5069512;28;20191;-71
2021/12/17 13:14:55;;;;;;;8.57;5.60;;;;;;;8.66;100.00;-24059.00;5077127;28;20190;-71
2021/12/17 13:17:52;;;;;;;7.90;5.63;;;;;;;8.83;100.00;-24063.81;5068151;28;20182;-72
2021/12/17 13:22:58;;;;;;;8.90;7.03;;;;;;;8.58;100.00;-24056.72;5066323;28;20201;-71
2021/12/17 13:25:26;;;;;;;21.73;13.70;;;;;;;8.95;100.00;-24066.91;5068978;28;20209;-66
2021/12/17 13:27:55;;;;;;;12.87;8.53;;;;;;;8.64;100.00;-24058.44;5071731;28;20182;-66
2021/12/17 13:30:24;;;;;;;8.00;6.50;;;;;;;8.66;100.00;-24058.84;5075858;28;20239;-67
2021/12/17 13:32:52;;;;;;;8.40;6.50;;;;;;;8.86;100.00;-24064.66;5074578;28;20535;-65
2021/12/17 13:35:18;;;;;;;10.00;5.83;;;;;;;8.71;100.00;-24060.25;5051908;28;20221;-74
2021/12/17 13:37:44;;;;;;;10.20;5.97;;;;;;;8.65;100.00;-24058.56;5055854;28;20209;-70
2021/12/17 13:40:12;;;;;;;9.70;6.57;;;;;;;8.48;100.00;-24053.91;5067724;28;20181;-57
2021/12/17 13:42:39;;;;;;;6.70;5.50;;;;;;;8.99;100.00;-24068.19;5063518;28;20549;-56
2021/12/17 13:45:21;;;;;;;7.90;6.07;;;;;;;8.73;100.00;-24060.84;5073338;28;20311;-71
2021/12/17 13:47:50;;;;;;;8.03;5.90;;;;;;;8.79;100.00;-24062.66;5067260;28;20239;-68
2021/12/17 13:50:28;;;;;;;5.80;4.63;;;;;;;8.65;100.00;-24058.72;5070375;28;20178;-70
2021/12/17 13:53:00;;;;;;;16.40;4.57;;;;;;;8.14;100.00;-24044.28;5071895;28;20228;-70
2021/12/17 13:55:29;;;;;;;7.27;4.70;;;;;;;8.45;100.00;-24052.91;5069712;28;20186;-67
2021/12/17 13:57:56;;;;;;;9.10;4.50;;;;;;;8.51;100.00;-24054.75;5068776;28;20259;-69
2021/12/17 14:00:25;;;;;;;6.73;4.20;;;;;;;8.39;100.00;-24051.34;5072194;28;20724;-70
2021/12/17 14:02:54;;;;;;;5.70;4.27;;;;;;;7.96;100.00;-24039.31;5071906;28;20178;-70
2021/12/17 14:05:39;;;;;;;6.57;4.30;;;;;;;8.35;100.00;-24050.22;5078626;28;20217;-72
2021/12/17 14:08:08;;;;;;;6.17;4.17;;;;;;;8.24;100.00;-24047.09;5070506;28;20189;-70
2021/12/17 14:10:36;;;;;;;8.77;4.43;;;;;;;8.28;100.00;-24048.22;5076186;28;20447;-70
2021/12/17 14:13:03;;;;;;;9.07;3.80;;;;;;;8.26;100.00;-24047.81;5071170;28;20251;-72
2021/12/17 14:15:32;;;;;;;6.53;4.03;;;;;;;8.06;100.00;-24042.16;5073390;28;20186;-67
2021/12/17 14:18:04;;;;;;;6.27;4.10;;;;;;;8.06;100.00;-24042.16;5075658;28;20540;-70
2021/12/17 14:20:48;;;;;;;6.40;3.40;;;;;;;8.00;100.00;-24040.59;5070632;28;20181;-71